SARP/PSS METAR and TAF weather

Enter ICAO airport designator
Station Type Date Time Source
SARP METAR 2020/07/05 16:00 UTC NOAA

SARP 051600Z 32007KT 9999 SCT040TCU 26/18 Q1011


Station Type Date Time Source
SARP Decoded METAR 2020/07/05 16:00 UTC NOAA

Posadas Aero., Argentina (SARP) 27-22S 055-58W 133M
Jul 05, 2020 - 12:00 PM EDT / 2020.07.05 1600 UTC
Wind: from the NW (320 degrees) at 8 MPH (7 KT):0
Visibility: greater than 7 mile(s):0
Sky conditions: partly cloudy
Weather: Towering cumulus clouds observed
Temperature: 78 F (26 C)
Dew Point: 64 F (18 C)
Relative Humidity: 61%
Pressure (altimeter): 29.85 in. Hg (1011 hPa)
ob: SARP 051600Z 32007KT 9999 SCT040TCU 26/18 Q1011
cycle: 16

Station Type Date Time Source
SARP TAF 2020/07/05 12:39 UTC NOAA

TAF SARP 051100Z 0512/0612 05005KT 9999 BKN030 TX24/0519Z TN10/0609Z
TEMPO 0513/0520 8000 -TSRA OVC020 FEW050CB
BECMG 0521/0523 OVC010
TEMPO 0601/0606 20010KT 6000 TSRA OVC007 FEW050CB

Example: see airport list